createdAt,value
2018-09-28T00:01:29.572Z,100698.98
2018-09-28T00:04:01.479Z,100699.53
2018-09-28T00:06:33.456Z,100694.00
2018-09-28T00:09:08.387Z,100696.48
2018-09-28T00:11:40.382Z,100696.26
2018-09-28T00:14:12.382Z,100698.91
2018-09-28T00:16:44.397Z,100694.48
2018-09-28T00:19:16.413Z,100698.23
2018-09-28T00:21:48.481Z,100687.98
2018-09-28T00:24:20.457Z,100691.77
2018-09-28T00:26:52.485Z,100693.31
2018-09-28T00:29:24.526Z,100687.51
2018-09-28T00:31:56.489Z,100683.56
2018-09-28T00:34:28.569Z,100684.30
2018-09-28T00:37:00.472Z,100678.14
2018-09-28T00:39:32.414Z,100671.77
2018-09-28T00:42:04.466Z,100677.70
2018-09-28T00:44:36.592Z,100675.53
2018-09-28T00:47:08.618Z,100666.27
2018-09-28T00:49:40.469Z,100666.83
2018-09-28T00:52:12.486Z,100663.73
2018-09-28T00:54:44.416Z,100666.64
2018-09-28T00:57:16.450Z,100670.50
2018-09-28T00:59:48.407Z,100669.32
2018-09-28T01:02:20.470Z,100661.72
2018-09-28T01:04:52.508Z,100666.06
2018-09-28T01:07:24.460Z,100660.76
2018-09-28T01:09:56.505Z,100657.75
2018-09-28T01:12:28.497Z,100655.10
2018-09-28T01:15:00.452Z,100657.87
2018-09-28T01:17:32.449Z,100655.09
2018-09-28T01:20:04.487Z,100657.86
2018-09-28T01:22:36.548Z,100654.36
2018-09-28T01:25:08.497Z,100652.56
2018-09-28T01:27:40.440Z,100651.11
2018-09-28T01:30:12.474Z,100651.37
2018-09-28T01:32:44.490Z,100650.89
2018-09-28T01:35:16.464Z,100651.37
2018-09-28T01:37:48.448Z,100639.33
2018-09-28T01:40:20.500Z,100649.70
2018-09-28T01:42:52.554Z,100646.55
2018-09-28T01:45:24.492Z,100647.52
2018-09-28T01:47:56.444Z,100653.04
2018-09-28T01:50:28.441Z,100647.40
2018-09-28T01:53:00.425Z,100650.89
2018-09-28T01:55:32.445Z,100650.39
2018-09-28T01:58:04.432Z,100646.20
2018-09-28T02:00:36.445Z,100638.73
2018-09-28T02:03:08.666Z,100631.29
2018-09-28T02:05:40.534Z,100636.20
2018-09-28T02:08:12.463Z,100631.75
2018-09-28T02:10:44.477Z,100633.29
2018-09-28T02:13:16.452Z,100634.61
2018-09-28T02:15:48.565Z,100629.84
2018-09-28T02:18:20.518Z,100632.94
2018-09-28T02:20:52.525Z,100634.73
2018-09-28T02:23:24.514Z,100635.94
2018-09-28T02:25:56.500Z,100636.17
2018-09-28T02:28:28.489Z,100641.73
2018-09-28T02:31:00.457Z,100640.87
2018-09-28T02:33:32.517Z,100631.75
2018-09-28T02:36:04.505Z,100632.95
2018-09-28T02:38:36.511Z,100636.43
2018-09-28T02:41:08.509Z,100632.81
2018-09-28T02:43:40.506Z,100640.16
2018-09-28T02:46:12.453Z,100642.45
2018-09-28T02:48:44.465Z,100641.14
2018-09-28T02:51:16.495Z,100632.59
2018-09-28T02:53:48.478Z,100639.20
2018-09-28T02:56:20.506Z,100645.91
2018-09-28T02:58:52.521Z,100643.25
2018-09-28T03:01:24.529Z,100643.63
2018-09-28T03:03:56.501Z,100643.58
2018-09-28T03:06:28.547Z,100634.84
2018-09-28T03:09:00.510Z,100635.70
2018-09-28T03:11:32.506Z,100631.61
2018-09-28T03:14:04.502Z,100632.20
2018-09-28T03:16:36.526Z,100642.30
2018-09-28T03:19:08.513Z,100644.48
2018-09-28T03:21:40.444Z,100636.28
2018-09-28T03:24:12.461Z,100640.39
2018-09-28T03:26:44.587Z,100649.98
2018-09-28T03:29:16.473Z,100645.53
2018-09-28T03:31:48.447Z,100645.67
2018-09-28T03:34:20.615Z,100651.53
2018-09-28T03:36:52.521Z,100650.37
2018-09-28T03:39:24.494Z,100649.20
2018-09-28T03:41:56.472Z,100651.39
2018-09-28T03:44:28.552Z,100651.58
2018-09-28T03:47:01.511Z,100654.34
2018-09-28T03:49:33.493Z,100654.20
2018-09-28T03:52:05.682Z,100655.72
2018-09-28T03:54:37.553Z,100650.02
2018-09-28T03:57:10.573Z,100656.51
2018-09-28T03:59:42.724Z,100645.30
2018-09-28T04:02:14.574Z,100653.16
2018-09-28T04:04:46.513Z,100652.05
2018-09-28T04:07:18.522Z,100653.07
2018-09-28T04:09:50.481Z,100656.53
2018-09-28T04:12:22.449Z,100662.93
2018-09-28T04:14:54.522Z,100656.24
2018-09-28T04:17:26.539Z,100659.30
2018-09-28T04:19:58.556Z,100660.39
2018-09-28T04:22:30.481Z,100657.13
2018-09-28T04:25:02.429Z,100671.35
2018-09-28T04:27:34.465Z,100664.69
2018-09-28T04:30:06.581Z,100669.99
2018-09-28T04:32:38.498Z,100666.64
2018-09-28T04:35:10.481Z,100675.71
2018-09-28T04:37:42.458Z,100676.48
2018-09-28T04:40:14.478Z,100669.41
2018-09-28T04:42:46.495Z,100672.09
2018-09-28T04:45:18.603Z,100671.20
2018-09-28T04:47:50.476Z,100674.58
2018-09-28T04:50:23.458Z,100674.58
2018-09-28T04:52:55.732Z,100683.97
2018-09-28T04:55:27.728Z,100684.59
2018-09-28T04:57:59.690Z,100687.08
2018-09-28T05:00:38.568Z,100685.38
2018-09-28T05:03:11.615Z,100693.64
2018-09-28T05:05:43.589Z,100696.09
2018-09-28T05:08:15.593Z,100693.72
2018-09-28T05:10:47.513Z,100705.09
2018-09-28T05:13:19.395Z,100699.73
2018-09-28T05:15:51.415Z,100709.05
2018-09-28T05:18:24.007Z,100705.67
2018-09-28T05:20:55.918Z,100700.59
2018-09-28T05:23:27.596Z,100704.63
2018-09-28T05:25:59.495Z,100707.95
2018-09-28T05:28:31.456Z,100715.58
2018-09-28T05:31:03.473Z,100712.06
2018-09-28T05:33:35.497Z,100713.00
2018-09-28T05:36:07.474Z,100716.77
2018-09-28T05:38:39.562Z,100721.77
2018-09-28T05:41:11.478Z,100721.83
2018-09-28T05:43:43.556Z,100720.00
2018-09-28T05:46:15.498Z,100723.00
2018-09-28T05:48:47.479Z,100718.88
2018-09-28T05:51:19.560Z,100725.33
2018-09-28T05:53:51.543Z,100721.41
2018-09-28T05:56:23.688Z,100724.76
2018-09-28T05:59:00.740Z,100728.86
2018-09-28T06:01:37.894Z,100725.06
2018-09-28T06:04:15.195Z,100724.20
2018-09-28T06:06:47.424Z,100729.44
2018-09-28T06:09:19.473Z,100731.48
2018-09-28T06:11:51.425Z,100729.34
2018-09-28T06:14:23.440Z,100731.87
2018-09-28T06:16:55.506Z,100735.65
2018-09-28T06:19:27.488Z,100738.91
2018-09-28T06:21:59.563Z,100738.78
2018-09-28T06:24:31.464Z,100744.23
2018-09-28T06:27:03.417Z,100741.87
2018-09-28T06:29:35.468Z,100751.13
2018-09-28T06:32:07.428Z,100749.58
2018-09-28T06:34:39.453Z,100749.42
2018-09-28T06:37:11.565Z,100749.90
2018-09-28T06:39:43.466Z,100751.84
2018-09-28T06:42:15.468Z,100760.05
2018-09-28T06:44:47.507Z,100753.16
2018-09-28T06:47:19.470Z,100757.44
2018-09-28T06:49:51.498Z,100761.63
2018-09-28T06:52:23.463Z,100765.07
2018-09-28T06:54:55.420Z,100765.13
2018-09-28T06:57:27.476Z,100765.95
2018-09-28T06:59:59.730Z,100762.30
2018-09-28T07:02:31.690Z,100773.06
2018-09-28T07:05:03.731Z,100766.88
2018-09-28T07:07:35.730Z,100766.45
2018-09-28T07:10:08.294Z,100770.80
2018-09-28T07:12:40.418Z,100765.77
2018-09-28T07:15:12.581Z,100777.72
2018-09-28T07:17:44.575Z,100778.36
2018-09-28T07:20:16.605Z,100775.46
2018-09-28T07:22:48.539Z,100775.10
2018-09-28T07:25:20.594Z,100769.44
2018-09-28T07:27:52.605Z,100775.84
2018-09-28T07:30:25.064Z,100768.63
2018-09-28T07:32:57.370Z,100771.02
2018-09-28T07:35:29.414Z,100777.83
2018-09-28T07:38:01.498Z,100782.18
2018-09-28T07:40:33.510Z,100785.52
2018-09-28T07:43:05.511Z,100781.20
2018-09-28T07:45:37.598Z,100786.71
2018-09-28T07:48:11.294Z,100786.82
2018-09-28T07:50:43.762Z,100794.00
2018-09-28T07:53:15.569Z,100791.48
2018-09-28T07:55:47.534Z,100789.20
2018-09-28T07:58:19.565Z,100796.33
2018-09-28T08:00:51.702Z,100795.48
2018-09-28T08:03:28.382Z,100803.66
2018-09-28T08:06:01.241Z,100794.89
2018-09-28T08:08:33.323Z,100803.23
2018-09-28T08:11:05.395Z,100807.73
2018-09-28T08:13:37.455Z,100798.00
2018-09-28T08:16:09.609Z,100800.71
2018-09-28T08:18:41.667Z,100806.80
2018-09-28T08:21:13.594Z,100811.02
2018-09-28T08:23:45.529Z,100802.10
2018-09-28T08:26:17.493Z,100802.84
2018-09-28T08:28:49.533Z,100801.16
2018-09-28T08:31:21.485Z,100789.65
2018-09-28T08:33:53.479Z,100788.59
2018-09-28T08:36:25.631Z,100789.08
2018-09-28T08:38:57.542Z,100798.86
2018-09-28T08:41:29.478Z,100796.61
2018-09-28T08:44:01.501Z,100798.48
2018-09-28T08:46:33.482Z,100802.31
2018-09-28T08:49:05.786Z,100799.53
2018-09-28T08:51:37.701Z,100796.54
2018-09-28T08:54:09.527Z,100808.90
2018-09-28T08:56:41.506Z,100807.40
2018-09-28T08:59:13.489Z,100810.70
2018-09-28T09:01:45.501Z,100802.70
2018-09-28T09:04:17.538Z,100815.66
2018-09-28T09:06:49.513Z,100815.20
2018-09-28T09:09:21.505Z,100811.47
2018-09-28T09:11:53.440Z,100803.31
2018-09-28T09:14:25.602Z,100811.41
2018-09-28T09:16:57.477Z,100815.00
2018-09-28T09:19:29.497Z,100807.50
2018-09-28T09:22:01.527Z,100807.11
2018-09-28T09:24:33.503Z,100809.45
2018-09-28T09:27:05.607Z,100804.26
2018-09-28T09:29:37.528Z,100808.61
2018-09-28T09:32:09.460Z,100801.09
2018-09-28T09:34:41.422Z,100806.53
2018-09-28T09:37:13.498Z,100808.19
2018-09-28T09:39:45.508Z,100816.27
2018-09-28T09:42:18.464Z,100809.30
2018-09-28T09:44:50.479Z,100811.11
2018-09-28T09:47:22.480Z,100804.26
2018-09-28T09:49:54.472Z,100807.41
2018-09-28T09:52:26.476Z,100805.63
2018-09-28T09:54:58.504Z,100806.80
2018-09-28T09:57:30.390Z,100804.11
2018-09-28T10:00:02.370Z,100802.80
2018-09-28T10:02:39.356Z,100799.45
2018-09-28T10:05:12.387Z,100801.12
2018-09-28T10:07:44.443Z,100799.03
2018-09-28T10:10:16.472Z,100792.44
2018-09-28T10:12:49.337Z,100795.80
2018-09-28T10:15:20.613Z,100791.28
2018-09-28T10:17:52.547Z,100797.48
2018-09-28T10:20:24.484Z,100798.81
2018-09-28T10:22:56.545Z,100804.13
2018-09-28T10:25:28.554Z,100794.44
2018-09-28T10:28:00.603Z,100802.48
2018-09-28T10:30:32.538Z,100795.43
2018-09-28T10:33:04.658Z,100792.45
2018-09-28T10:35:36.637Z,100791.30
2018-09-28T10:38:08.643Z,100780.25
2018-09-28T10:40:43.517Z,100781.09
2018-09-28T10:43:14.388Z,100780.08
2018-09-28T10:45:46.477Z,100781.92
2018-09-28T10:48:18.533Z,100784.73
2018-09-28T10:50:50.629Z,100781.56
2018-09-28T10:53:23.242Z,100789.64
2018-09-28T10:55:55.365Z,100795.96
2018-09-28T10:58:27.467Z,100789.14
2018-09-28T11:00:59.393Z,100786.09
2018-09-28T11:03:31.418Z,100789.46
2018-09-28T11:06:03.394Z,100792.32
2018-09-28T11:08:35.476Z,100792.79
2018-09-28T11:11:07.365Z,100796.16
2018-09-28T11:13:39.361Z,100796.84
2018-09-28T11:16:11.397Z,100787.28
2018-09-28T11:18:43.357Z,100790.11
2018-09-28T11:21:15.420Z,100790.45
2018-09-28T11:23:47.377Z,100786.72
2018-09-28T11:26:19.504Z,100792.79
2018-09-28T11:28:51.489Z,100788.12
2018-09-28T11:31:23.460Z,100779.41
2018-09-28T11:33:55.493Z,100775.67
2018-09-28T11:36:27.542Z,100767.98
2018-09-28T11:38:59.461Z,100773.80
2018-09-28T11:41:31.509Z,100773.17
2018-09-28T11:44:03.504Z,100765.73
2018-09-28T11:46:35.447Z,100768.41
2018-09-28T11:49:07.617Z,100770.62
2018-09-28T11:51:39.575Z,100773.84
2018-09-28T11:54:11.505Z,100774.64
2018-09-28T11:56:43.500Z,100771.02
2018-09-28T11:59:15.588Z,100777.74
2018-09-28T12:01:47.517Z,100774.69
2018-09-28T12:04:19.432Z,100774.05
2018-09-28T12:06:51.678Z,100766.00
2018-09-28T12:09:23.582Z,100762.97
2018-09-28T12:11:55.597Z,100762.45
2018-09-28T12:14:27.468Z,100759.30
2018-09-28T12:16:59.464Z,100755.27
2018-09-28T12:19:31.449Z,100762.30
2018-09-28T12:22:03.534Z,100764.28
2018-09-28T12:24:36.621Z,100762.29
2018-09-28T12:27:08.683Z,100761.44
2018-09-28T12:29:40.556Z,100756.87
2018-09-28T12:32:12.514Z,100751.54
2018-09-28T12:34:44.532Z,100754.72
2018-09-28T12:37:16.495Z,100755.57
2018-09-28T12:39:48.655Z,100750.22
2018-09-28T12:42:20.514Z,100753.25
2018-09-28T12:44:52.648Z,100757.07
2018-09-28T12:47:24.518Z,100761.90
2018-09-28T12:49:56.529Z,100762.98
2018-09-28T12:52:28.522Z,100771.09
2018-09-28T12:55:00.507Z,100763.19
2018-09-28T12:57:32.499Z,100769.80
2018-09-28T13:00:04.565Z,100773.20
2018-09-28T13:02:36.640Z,100777.19
2018-09-28T13:05:08.481Z,100780.33
2018-09-28T13:07:40.494Z,100769.91
2018-09-28T13:10:12.506Z,100772.47
2018-09-28T13:12:44.504Z,100773.82
2018-09-28T13:15:16.631Z,100766.61
2018-09-28T13:17:48.452Z,100773.66
2018-09-28T13:20:21.255Z,100780.33
2018-09-28T13:22:53.354Z,100781.09
2018-09-28T13:25:25.366Z,100782.32
2018-09-28T13:27:58.397Z,100793.37
2018-09-28T13:30:30.505Z,100794.97
2018-09-28T13:33:02.512Z,100796.80
2018-09-28T13:35:34.498Z,100798.16
2018-09-28T13:38:06.577Z,100796.23
2018-09-28T13:40:38.483Z,100798.27
2018-09-28T13:43:10.499Z,100801.84
2018-09-28T13:45:42.494Z,100810.80
2018-09-28T13:48:14.520Z,100816.41
2018-09-28T13:50:46.568Z,100808.99
2018-09-28T13:53:18.465Z,100812.92
2018-09-28T13:55:50.506Z,100817.62
2018-09-28T13:58:22.513Z,100823.21
2018-09-28T14:00:54.454Z,100825.48
2018-09-28T14:03:26.723Z,100843.69
2018-09-28T14:08:43.414Z,100846.23
2018-09-28T14:11:15.395Z,100856.66
2018-09-28T14:13:47.381Z,100859.12
2018-09-28T14:16:19.408Z,100861.79
2018-09-28T14:21:12.523Z,100865.28
2018-09-28T14:23:44.722Z,100875.09
2018-09-28T14:26:16.567Z,100872.72
2018-09-28T14:28:48.724Z,100882.20
2018-09-28T14:31:20.453Z,100874.60
2018-09-28T14:33:52.482Z,100874.67
2018-09-28T14:36:24.653Z,100882.52
2018-09-28T14:38:57.262Z,100886.46
2018-09-28T14:41:29.285Z,100887.56
2018-09-28T14:44:00.376Z,100880.89
2018-09-28T14:46:32.269Z,100884.42
2018-09-28T14:49:04.381Z,100895.49
2018-09-28T14:51:36.348Z,100894.09
2018-09-28T14:54:08.438Z,100892.95
2018-09-28T14:56:40.376Z,100887.01
2018-09-28T14:59:12.390Z,100889.83
2018-09-28T15:01:44.364Z,100892.17
2018-09-28T15:04:16.511Z,100897.75
2018-09-28T15:06:48.611Z,100903.30
2018-09-28T15:09:20.486Z,100899.73
2018-09-28T15:11:52.444Z,100913.44
2018-09-28T15:14:24.513Z,100910.50
2018-09-28T15:16:56.464Z,100912.36
2018-09-28T15:19:28.456Z,100912.73
2018-09-28T15:24:41.491Z,100917.54
2018-09-28T15:27:13.515Z,100914.65
2018-09-28T15:29:45.530Z,100913.90
2018-09-28T15:32:17.449Z,100919.31
2018-09-28T15:34:49.477Z,100920.20
2018-09-28T15:37:21.457Z,100916.98
2018-09-28T15:39:53.467Z,100921.83
2018-09-28T15:42:25.465Z,100922.58
2018-09-28T15:44:57.448Z,100929.09
2018-09-28T15:47:29.509Z,100936.52
2018-09-28T15:50:01.489Z,100932.32
2018-09-28T15:52:33.479Z,100935.46
2018-09-28T15:55:05.505Z,100938.73
2018-09-28T15:57:37.558Z,100950.90
2018-09-28T16:00:10.498Z,100954.94
2018-09-28T16:02:42.421Z,100953.13
2018-09-28T16:05:14.465Z,100950.71
2018-09-28T16:07:46.442Z,100958.03
2018-09-28T16:10:18.478Z,100954.94
2018-09-28T16:12:50.443Z,100961.50
2018-09-28T16:15:22.477Z,100960.50
2018-09-28T16:17:54.385Z,100965.05
2018-09-28T16:20:26.378Z,100965.87
2018-09-28T16:22:58.338Z,100967.67
2018-09-28T16:25:30.351Z,100983.40
2018-09-28T16:28:02.424Z,100989.57
2018-09-28T16:30:34.433Z,100990.38
2018-09-28T16:33:06.625Z,100988.28
2018-09-28T16:35:38.485Z,100997.64
2018-09-28T16:40:52.373Z,100994.42
2018-09-28T16:43:24.346Z,101006.77
2018-09-28T16:45:56.471Z,101017.14
2018-09-28T16:48:28.448Z,101019.98
2018-09-28T16:51:00.421Z,101011.38
2018-09-28T16:53:32.402Z,101022.20
2018-09-28T16:56:04.506Z,101015.72
2018-09-28T16:58:36.483Z,101013.50
2018-09-28T17:01:08.563Z,101024.76
2018-09-28T17:03:40.539Z,101032.53
2018-09-28T17:06:12.805Z,101030.42
2018-09-28T17:08:44.615Z,101036.05
2018-09-28T17:11:16.546Z,101044.54
2018-09-28T17:13:48.428Z,101043.06
2018-09-28T17:16:20.441Z,101028.20
2018-09-28T17:18:52.420Z,101036.69
2018-09-28T17:21:24.501Z,101032.36
2018-09-28T17:23:56.469Z,101036.73
2018-09-28T17:26:28.394Z,101043.34
2018-09-28T17:29:00.393Z,101045.21
2018-09-28T17:31:32.384Z,101053.42
2018-09-28T17:34:04.335Z,101050.27
2018-09-28T17:36:36.356Z,101056.46
2018-09-28T17:39:12.764Z,101055.00
2018-09-28T17:41:44.552Z,101060.69
2018-09-28T17:44:16.450Z,101060.92
2018-09-28T17:46:48.405Z,101067.69
2018-09-28T17:49:20.406Z,101070.71
2018-09-28T17:51:52.441Z,101078.09
2018-09-28T17:54:24.445Z,101069.03
2018-09-28T17:59:35.523Z,101083.52
2018-09-28T18:02:07.509Z,101087.27
2018-09-28T18:04:39.429Z,101090.34
2018-09-28T18:07:11.432Z,101098.66
2018-09-28T18:09:43.410Z,101102.02
2018-09-28T18:12:15.426Z,101101.34
2018-09-28T18:14:47.404Z,101105.70
2018-09-28T18:17:19.443Z,101112.55
2018-09-28T18:19:51.436Z,101120.17
2018-09-28T18:22:23.552Z,101129.84
2018-09-28T18:27:41.231Z,101122.73
2018-09-28T18:30:13.334Z,101123.33
2018-09-28T18:32:45.336Z,101129.52
2018-09-28T18:35:17.346Z,101133.73
2018-09-28T18:37:49.378Z,101134.08
2018-09-28T18:40:21.398Z,101145.74
2018-09-28T18:45:37.428Z,101149.84
2018-09-28T18:48:09.355Z,101149.24
2018-09-28T18:50:41.347Z,101147.91
2018-09-28T18:53:13.520Z,101147.45
2018-09-28T18:55:45.534Z,101154.83
2018-09-28T18:58:17.450Z,101159.55
2018-09-28T19:00:49.440Z,101162.08
2018-09-28T19:03:21.500Z,101162.34
2018-09-28T19:05:53.506Z,101168.73
2018-09-28T19:08:25.394Z,101176.22
2018-09-28T19:10:57.456Z,101181.05
2018-09-28T19:13:29.392Z,101175.27
2018-09-28T19:16:01.391Z,101185.97
2018-09-28T19:18:33.387Z,101188.02
2018-09-28T19:21:06.373Z,101196.94
2018-09-28T19:23:38.354Z,101192.61
2018-09-28T19:26:10.374Z,101194.62
2018-09-28T19:28:42.349Z,101195.20
2018-09-28T19:31:14.351Z,101197.00
2018-09-28T19:33:46.380Z,101199.77
2018-09-28T19:36:18.357Z,101202.42
2018-09-28T19:38:50.440Z,101204.81
2018-09-28T19:41:22.567Z,101213.13
2018-09-28T19:43:54.486Z,101219.36
2018-09-28T19:46:26.594Z,101224.67
2018-09-28T19:48:58.545Z,101223.56
2018-09-28T19:51:30.634Z,101227.13
2018-09-28T19:54:02.505Z,101226.06
2018-09-28T19:56:34.524Z,101237.63
2018-09-28T19:59:06.545Z,101235.66
2018-09-28T20:01:38.450Z,101246.78
2018-09-28T20:04:10.434Z,101251.30
2018-09-28T20:06:42.499Z,101260.27
2018-09-28T20:09:14.473Z,101259.00
2018-09-28T20:11:46.509Z,101258.52
2018-09-28T20:14:18.486Z,101264.34
2018-09-28T20:16:50.515Z,101259.81
2018-09-28T20:19:22.474Z,101266.28
2018-09-28T20:21:54.544Z,101265.50
2018-09-28T20:24:26.561Z,101266.05
2018-09-28T20:26:58.520Z,101263.00
2018-09-28T20:29:30.477Z,101271.29
2018-09-28T20:32:02.425Z,101278.54
2018-09-28T20:34:34.491Z,101280.52
2018-09-28T20:37:06.626Z,101284.48
2018-09-28T20:39:38.534Z,101278.17
2018-09-28T20:42:10.513Z,101286.77
2018-09-28T20:44:42.465Z,101284.17
2018-09-28T20:47:14.683Z,101289.25
2018-09-28T20:49:46.499Z,101285.77
2018-09-28T20:52:18.766Z,101292.25
2018-09-28T20:54:51.717Z,101297.68
2018-09-28T20:57:23.550Z,101306.48
2018-09-28T20:59:56.462Z,101304.30
2018-09-28T21:02:28.616Z,101302.45
2018-09-28T21:05:00.605Z,101311.99
2018-09-28T21:07:32.608Z,101304.30
2018-09-28T21:10:04.575Z,101309.06
2018-09-28T21:12:36.622Z,101314.70
2018-09-28T21:15:08.484Z,101307.58
2018-09-28T21:17:40.575Z,101304.57
2018-09-28T21:20:12.536Z,101300.26
2018-09-28T21:22:44.563Z,101296.91
2018-09-28T21:25:18.291Z,101298.70
2018-09-28T21:27:49.547Z,101299.67
2018-09-28T21:30:21.575Z,101300.99
2018-09-28T21:32:53.536Z,101305.00
2018-09-28T21:35:25.521Z,101313.41
2018-09-28T21:37:57.546Z,101317.09
2018-09-28T21:40:29.595Z,101317.48
2018-09-28T21:43:01.784Z,101316.45
2018-09-28T21:45:34.426Z,101318.84
2018-09-28T21:48:07.514Z,101318.73
2018-09-28T21:50:50.704Z,101326.31
2018-09-28T21:53:38.325Z,101332.10
2018-09-28T21:56:13.960Z,101330.03
2018-09-28T21:58:47.387Z,101325.88
2018-09-28T22:01:24.298Z,101334.93
2018-09-28T22:03:56.477Z,101334.00
2018-09-28T22:06:28.964Z,101338.17
2018-09-28T22:09:05.663Z,101335.74
2018-09-28T22:11:37.556Z,101332.16
2018-09-28T22:14:09.493Z,101338.59
2018-09-28T22:16:41.518Z,101337.12
2018-09-28T22:19:13.618Z,101338.07
2018-09-28T22:21:45.546Z,101346.47
2018-09-28T22:24:17.561Z,101349.97
2018-09-28T22:26:49.514Z,101340.26
2018-09-28T22:29:22.286Z,101338.37
2018-09-28T22:31:53.382Z,101345.65
2018-09-28T22:34:25.388Z,101347.73
2018-09-28T22:36:57.361Z,101348.09
2018-09-28T22:39:29.382Z,101346.06
2018-09-28T22:42:01.543Z,101339.05
2018-09-28T22:44:33.526Z,101346.80
2018-09-28T22:47:05.453Z,101348.52
2018-09-28T22:49:37.477Z,101356.34
2018-09-28T22:52:09.428Z,101359.55
2018-09-28T22:54:41.436Z,101364.95
2018-09-28T22:57:13.485Z,101370.13
2018-09-28T22:59:45.547Z,101370.80
2018-09-28T23:02:17.539Z,101373.02
2018-09-28T23:04:49.469Z,101370.47
2018-09-28T23:07:21.428Z,101370.18
2018-09-28T23:09:53.488Z,101369.25
2018-09-28T23:12:25.449Z,101376.58
2018-09-28T23:14:57.416Z,101379.78
2018-09-28T23:17:29.450Z,101388.92
2018-09-28T23:20:01.418Z,101383.18
2018-09-28T23:22:33.406Z,101383.17
2018-09-28T23:25:05.425Z,101376.37
2018-09-28T23:27:37.429Z,101385.52
2018-09-28T23:30:09.433Z,101386.17
2018-09-28T23:32:41.421Z,101391.29
2018-09-28T23:35:13.474Z,101397.12
2018-09-28T23:40:28.350Z,101395.30
2018-09-28T23:43:00.353Z,101389.75
2018-09-28T23:45:32.353Z,101388.80
2018-09-28T23:48:19.291Z,101394.75
2018-09-28T23:50:50.403Z,101401.20
2018-09-28T23:53:22.357Z,101401.89
2018-09-28T23:55:54.372Z,101402.18
2018-09-28T23:58:26.344Z,101406.86
